Impacts TAF Board
For situational awareness. Not to be used for flight planning purposes.
IDs:

PANC - Anchorage Intl, AK, US

Issued at 2340 UTC 28 Nov 2020
Updated at 0114 UTC 29 Nov 2020
Potential Impact None Slight Moderate High
Time0059Z 29/02Z 29/03Z 29/04Z 29/05Z 29/06Z 29/07Z 29/08Z 29/09Z 29/10Z 29/11Z 29/12Z 29/13Z 29/14Z>>
Type OBS PRVL PRVL PRVL PRVL PRVL PRVL PRVL PRVL PRVL PRVL PRVL PRVL PRVL
VIS 10 >6 >6 >6 >6 >6 >6 >6 >6 >6 >6 >6 >6 >6
CIG 80 80 80 80 80 50 50 50 50 50 50 50 50 50
Cover OVC BKN BKN BKN BKN OVC OVC OVC OVC OVC OVC OVC OVC OVC
FltCat VFR VFR VFR VFR VFR VFR VFR VFR VFR VFR VFR VFR VFR VFR
WX -- -- -- -- -- -- -- -- -- -- -- -- -- --
WDir 90 330 330 330 330 VRB VRB VRB VRB VRB VRB VRB VRB VRB
WSpd 3 6 6 6 6 3 3 3 3 3 3 3 3 3
WGst -- -- -- -- -- -- -- -- -- -- -- -- -- --
Raw TAF
PANC 282340Z 2900/3006 33006KT P6SM SCT050 BKN080 BKN160
  FM290600 VRB03KT P6SM OVC050
  FM292000 07006KT 5SM -SHSN BR SCT007 OVC025


Raw METAR
PANC 290059Z 09003KT 10SM SCT060 BKN080 OVC190 M02/M07 A2881 RMK AO2 T10221067 $
PANC 290053Z 10SM SCT060 BKN080 OVC190 M02/M06 A2881 RMK AO2 SLP758 T10171061 $
PANC 282353Z 01004KT 10SM SCT060 BKN080 BKN160 M02/M07 A2881 RMK AO2 SLP758 4/0094/009 T10171072 11006 21028 56014 $
PANC 282253Z 00000KT 10SM SCT050 BKN080 BKN160 M01/M06 A2882 RMK AO2 SLP761 T10111061 $

METAR Board
Radar Display
Forecast Discussion
For situational awareness. Not to be used for flight planning purposes.